logo dgac
Martes 06 de Diciembre del 2022
Buscar por aerodromo o helipuerto
Ingrese nombre de aeródromo, localidad o designador OACI:
TAF: TAF SCAT 060400Z 0606/0706 30004KT 9999 OVC011 TN14/0606Z TX21/0618Z BECMG 0610/0612 35012KT OVC020 BECMG 0616/0618 26010KT CAVOK BECMG 0700/0702 22004KT OVC018
TAF del 06/12/2022 a las 04:00 UTC
Para mayor información visite www.meteochile.cl
Período de validez: desde el 06 a las 06:00 UTC hasta el 07 a las 06:00 UTC
Viento: dirección 300 grados, velocidad 4 nudos
Visibilidad: 10 km o más
Nubes: Cubierto a 1100 pies sobre el nivel del aeródromo
Temperatura mínima: 14ºC el 06 a las 06:00 UTC
Temperatura máxima: 21ºC el 06 a las 18:00 UTC
Se espera un cambio entre las 10:00 UTC del 06 y las 12:00 UTC del 06, :
Viento: dirección 350 grados, velocidad 12 nudos
Nubes: Cubierto a 2000 pies sobre el nivel del aeródromo
Se espera un cambio entre las 16:00 UTC del 06 y las 18:00 UTC del 06, :
Viento: dirección 260 grados, velocidad 10 nudos
Visibilidad: 10 km o más,
    sin nubes bajo los 5.000 pies o bajo del MSA (Mínimo de Seguridad del Aeródromo),
    sin cumulonimbus, y sin fenómenos de tiempo significativo en el aeródromo o alrededores
Se espera un cambio entre las 00:00 UTC del 07 y las 02:00 UTC del 07, :
Viento: dirección 220 grados, velocidad 4 nudos
Nubes: Cubierto a 1800 pies sobre el nivel del aeródromo